Time;durP1;ratioP1;P1;durP2;ratioP2;P2;SDS_P1;SDS_P2;PMS_P1;PMS_P2;Temp;Humidity;BMP_temperature;BMP_pressure;BME280_temperature;BME280_humidity;BME280_pressure;Samples;Min_cycle;Max_cycle;Signal;HPM_P1;HPM_P2
2023/05/29 00:00:18;;;;;;;5.53;1.05;;;10.10;99.90;;;;;;5114036;28;20109;-69
2023/05/29 00:02:44;;;;;;;1.75;1.05;;;10.10;99.90;;;;;;5113670;28;20036;-69
2023/05/29 00:05:14;;;;;;;5.43;1.50;;;10.10;99.90;;;;;;5113980;28;20055;-70
2023/05/29 00:07:40;;;;;;;2.10;0.85;;;10.10;99.90;;;;;;5113706;28;20051;-69
2023/05/29 00:10:08;;;;;;;2.80;0.80;;;10.50;99.90;;;;;;5113904;28;20035;-69
2023/05/29 00:12:34;;;;;;;4.13;1.45;;;10.10;99.90;;;;;;5113631;28;20104;-70
2023/05/29 00:15:01;;;;;;;1.08;0.98;;;10.60;99.90;;;;;;5113918;28;20032;-69
2023/05/29 00:17:27;;;;;;;1.98;0.90;;;10.10;99.90;;;;;;5113791;28;20035;-70
2023/05/29 00:19:53;;;;;;;2.45;0.90;;;10.10;99.90;;;;;;5113662;28;20372;-70
2023/05/29 00:22:19;;;;;;;1.58;0.90;;;10.00;99.90;;;;;;5113776;28;20047;-70
2023/05/29 00:24:44;;;;;;;8.63;1.17;;;10.40;99.90;;;;;;5113842;28;20047;-70
2023/05/29 00:27:10;;;;;;;6.30;1.05;;;10.00;99.90;;;;;;5113757;28;20077;-69
2023/05/29 00:29:39;;;;;;;1.38;0.95;;;9.90;99.90;;;;;;5113924;28;20075;-69
2023/05/29 00:32:05;;;;;;;4.32;1.00;;;9.90;99.90;;;;;;5113463;28;20040;-69
2023/05/29 00:34:31;;;;;;;0.82;0.80;;;9.90;99.90;;;;;;5114559;28;20075;-69
2023/05/29 00:36:57;;;;;;;6.68;0.73;;;9.90;99.90;;;;;;5113840;28;20160;-69
2023/05/29 00:39:23;;;;;;;0.93;0.63;;;9.90;99.90;;;;;;5113963;28;20532;-71
2023/05/29 00:41:50;;;;;;;4.53;1.20;;;9.80;99.90;;;;;;5113635;28;20116;-70
2023/05/29 00:44:21;;;;;;;3.45;0.98;;;9.80;99.90;;;;;;5113629;28;20054;-69
2023/05/29 00:46:52;;;;;;;7.97;0.93;;;9.80;99.90;;;;;;5113285;28;20463;-70
2023/05/29 00:49:18;;;;;;;5.53;1.20;;;9.80;99.90;;;;;;5112825;28;20043;-71
2023/05/29 00:51:44;;;;;;;1.00;0.90;;;9.80;99.90;;;;;;5113585;28;20044;-70
2023/05/29 00:54:14;;;;;;;0.77;0.60;;;9.70;99.90;;;;;;5113567;28;20127;-69
2023/05/29 00:56:43;;;;;;;1.60;0.85;;;9.70;99.90;;;;;;5113943;28;20462;-69
2023/05/29 00:59:10;;;;;;;2.35;0.80;;;9.60;99.90;;;;;;5113417;28;20089;-70
2023/05/29 01:01:35;;;;;;;1.33;0.68;;;9.60;99.90;;;;;;5113524;28;20425;-69
2023/05/29 01:04:06;;;;;;;3.45;0.75;;;9.60;99.90;;;;;;5113445;28;20043;-70
2023/05/29 01:06:32;;;;;;;1.20;0.93;;;9.60;99.90;;;;;;5113304;28;20337;-71
2023/05/29 01:08:58;;;;;;;3.67;1.25;;;9.50;99.90;;;;;;5113783;28;20518;-70
2023/05/29 01:11:31;;;;;;;0.90;0.73;;;9.50;99.90;;;;;;5117174;28;20031;-70
2023/05/29 01:14:05;;;;;;;5.70;1.23;;;9.50;99.90;;;;;;5117034;28;20046;-69
2023/05/29 01:16:34;;;;;;;9.88;1.13;;;9.50;99.90;;;;;;5117381;28;20078;-70
2023/05/29 01:19:39;;;;;;;1.48;0.70;;;9.40;99.90;;;;;;5117169;28;20035;-70
2023/05/29 01:22:46;;;;;;;0.93;0.70;;;9.40;99.90;;;;;;5116877;28;20058;-69
2023/05/29 01:25:21;;;;;;;2.60;0.82;;;9.30;99.90;;;;;;5116342;28;20044;-70
2023/05/29 01:27:49;;;;;;;1.15;0.90;;;10.00;99.90;;;;;;5116659;28;20471;-70
2023/05/29 01:30:16;;;;;;;2.92;0.90;;;9.30;99.90;;;;;;5115581;28;20114;-70
2023/05/29 01:32:43;;;;;;;1.25;0.77;;;9.30;99.90;;;;;;5116535;28;20039;-69
2023/05/29 01:35:08;;;;;;;;;;;9.20;99.90;;;;;;5117083;28;20132;-69
2023/05/29 01:37:34;;;;;;;14.20;1.92;;;9.20;99.90;;;;;;5116495;28;20391;-69
2023/05/29 01:40:01;;;;;;;1.85;0.95;;;9.20;99.90;;;;;;5116477;28;20122;-69
2023/05/29 01:42:28;;;;;;;2.38;1.27;;;9.20;99.90;;;;;;5116429;28;20100;-70
2023/05/29 01:44:56;;;;;;;1.30;1.17;;;9.20;99.90;;;;;;5116379;28;20043;-69
2023/05/29 01:47:23;;;;;;;1.15;0.80;;;9.80;99.90;;;;;;5116178;28;20039;-69
2023/05/29 01:49:51;;;;;;;2.80;1.08;;;9.20;99.90;;;;;;5116317;28;20488;-70
2023/05/29 01:52:17;;;;;;;4.10;1.00;;;9.20;99.90;;;;;;5115024;28;20039;-70
2023/05/29 01:54:43;;;;;;;1.10;0.80;;;9.20;99.90;;;;;;5116206;28;20043;-70
2023/05/29 01:57:10;;;;;;;8.30;1.77;;;9.20;99.90;;;;;;5116363;28;20477;-69
2023/05/29 01:59:37;;;;;;;1.40;1.02;;;9.20;99.90;;;;;;5116096;28;20147;-69
2023/05/29 02:02:10;;;;;;;2.45;1.45;;;9.10;99.90;;;;;;5116106;28;20459;-69
2023/05/29 02:04:35;;;;;;;5.28;1.33;;;9.10;99.90;;;;;;5115985;28;20055;-70
2023/05/29 02:07:01;;;;;;;2.72;0.95;;;9.00;99.90;;;;;;5114689;28;20056;-69
2023/05/29 02:09:27;;;;;;;0.63;0.63;;;9.00;99.90;;;;;;5116146;28;20074;-70
2023/05/29 02:11:52;;;;;;;1.10;1.00;;;9.80;99.90;;;;;;5116021;28;20083;-70
2023/05/29 02:14:18;;;;;;;0.95;0.90;;;9.00;99.90;;;;;;5115824;28;20448;-70
2023/05/29 02:16:44;;;;;;;5.90;1.05;;;9.00;99.90;;;;;;5115755;28;20043;-69
2023/05/29 02:19:10;;;;;;;1.48;0.95;;;9.00;99.90;;;;;;5115808;28;20050;-70
2023/05/29 02:21:40;;;;;;;3.53;1.02;;;9.20;99.90;;;;;;5114540;28;20062;-69
2023/05/29 02:24:07;;;;;;;6.80;1.13;;;8.90;99.90;;;;;;5115829;28;20074;-69
2023/05/29 02:26:32;;;;;;;1.23;0.90;;;9.30;99.90;;;;;;5115574;28;20044;-69
2023/05/29 02:28:58;;;;;;;3.90;1.27;;;9.70;99.90;;;;;;5115259;27;20119;-70
2023/05/29 02:31:24;;;;;;;1.27;1.02;;;8.80;99.90;;;;;;5115548;28;20138;-69
2023/05/29 02:33:49;;;;;;;4.55;1.02;;;8.80;99.90;;;;;;5148753;27;20430;-69
2023/05/29 02:36:16;;;;;;;2.58;1.83;;;8.70;99.90;;;;;;5115370;28;20043;-69
2023/05/29 02:38:42;;;;;;;7.55;2.55;;;8.70;99.90;;;;;;5115326;28;20043;-69
2023/05/29 02:41:07;;;;;;;3.70;0.90;;;8.80;99.90;;;;;;5115253;28;20413;-69
2023/05/29 02:43:34;;;;;;;1.20;1.10;;;9.40;99.90;;;;;;5115264;28;20066;-69
2023/05/29 02:45:59;;;;;;;1.42;0.90;;;8.70;99.90;;;;;;5115091;28;20092;-70
2023/05/29 02:48:25;;;;;;;1.25;1.00;;;8.70;99.90;;;;;;5115170;28;20043;-69
2023/05/29 02:50:51;;;;;;;4.28;0.80;;;8.70;99.90;;;;;;5115708;28;20092;-69
2023/05/29 02:53:17;;;;;;;0.80;0.80;;;8.60;99.90;;;;;;5115009;28;20047;-70
2023/05/29 02:55:44;;;;;;;4.40;0.88;;;8.60;99.90;;;;;;5115098;28;20036;-69
2023/05/29 02:58:11;;;;;;;2.45;0.95;;;8.70;99.90;;;;;;5114891;28;20047;-70
2023/05/29 03:00:37;;;;;;;5.93;1.15;;;8.60;99.90;;;;;;5115132;28;20043;-70
2023/05/29 03:03:03;;;;;;;2.38;0.98;;;8.60;99.90;;;;;;5114939;28;20043;-69
2023/05/29 03:05:28;;;;;;;4.47;1.73;;;8.60;99.90;;;;;;5114619;28;20035;-70
2023/05/29 03:07:54;;;;;;;5.18;1.75;;;9.10;99.90;;;;;;5114890;28;20051;-70
2023/05/29 03:10:20;;;;;;;9.35;1.60;;;8.60;99.90;;;;;;5114707;28;20082;-70
2023/05/29 03:12:46;;;;;;;2.23;1.07;;;8.60;99.90;;;;;;5114663;28;20035;-69
2023/05/29 03:15:12;;;;;;;3.55;1.73;;;8.50;99.90;;;;;;5114273;28;20490;-70
2023/05/29 03:17:38;;;;;;;3.50;0.77;;;8.50;99.90;;;;;;5114852;28;20035;-69
2023/05/29 03:20:05;;;;;;;1.10;1.00;;;8.50;99.90;;;;;;5114520;28;20451;-69
2023/05/29 03:22:32;;;;;;;12.25;2.05;;;8.50;99.90;;;;;;5114473;28;20050;-69
2023/05/29 03:24:58;;;;;;;5.65;1.13;;;8.50;99.90;;;;;;5114411;28;20093;-69
2023/05/29 03:27:23;;;;;;;4.80;1.55;;;8.50;99.90;;;;;;5114271;28;20031;-69
2023/05/29 03:29:49;;;;;;;1.95;0.90;;;8.50;99.90;;;;;;5114355;28;20039;-69
2023/05/29 03:32:14;;;;;;;6.72;1.25;;;8.40;99.90;;;;;;5114547;28;20038;-69
2023/05/29 03:34:40;;;;;;;3.30;0.95;;;8.50;99.90;;;;;;5114332;28;20527;-69
2023/05/29 03:37:06;;;;;;;0.82;0.77;;;8.50;99.90;;;;;;5114303;28;20042;-69
2023/05/29 03:39:31;;;;;;;14.43;1.90;;;8.50;99.90;;;;;;5114252;28;20045;-69
2023/05/29 03:41:57;;;;;;;4.28;1.05;;;8.50;99.90;;;;;;5114269;28;20045;-69
2023/05/29 03:44:22;;;;;;;0.98;0.70;;;8.50;99.90;;;;;;5114067;28;20054;-69
2023/05/29 03:46:50;;;;;;;1.52;0.95;;;8.70;99.90;;;;;;5114104;28;20034;-69
2023/05/29 03:49:15;;;;;;;1.70;1.20;;;8.50;99.90;;;;;;5114111;28;20047;-70
2023/05/29 03:51:41;;;;;;;5.18;3.53;;;8.90;99.90;;;;;;5114100;28;20040;-69
2023/05/29 03:54:06;;;;;;;1.17;1.00;;;8.50;99.90;;;;;;5114108;28;20483;-69
2023/05/29 03:56:32;;;;;;;6.88;1.35;;;8.50;99.90;;;;;;5113785;28;20047;-70
2023/05/29 03:58:57;;;;;;;12.45;1.88;;;9.20;99.90;;;;;;5114033;28;20080;-69
2023/05/29 04:01:23;;;;;;;4.00;1.17;;;8.70;99.90;;;;;;5114019;28;20406;-69
2023/05/29 04:03:49;;;;;;;2.13;2.03;;;8.60;99.90;;;;;;5114707;28;20089;-70
2023/05/29 04:06:16;;;;;;;12.68;1.48;;;8.60;99.90;;;;;;5114108;28;20036;-69
2023/05/29 04:08:41;;;;;;;4.88;3.13;;;8.60;99.90;;;;;;5114065;28;20059;-70
2023/05/29 04:11:07;;;;;;;0.90;0.88;;;8.70;99.90;;;;;;5114007;28;20031;-69
2023/05/29 04:13:32;;;;;;;1.98;0.95;;;8.70;99.90;;;;;;5113828;28;20078;-70
2023/05/29 04:15:58;;;;;;;1.85;1.55;;;8.70;99.90;;;;;;5113889;28;20122;-69
2023/05/29 04:18:25;;;;;;;1.25;0.80;;;8.70;99.90;;;;;;5114373;28;20031;-70
2023/05/29 04:20:51;;;;;;;3.85;1.52;;;8.80;99.90;;;;;;5113884;28;20057;-70
2023/05/29 04:23:16;;;;;;;1.20;0.80;;;9.10;99.90;;;;;;5113872;28;20456;-70
2023/05/29 04:25:43;;;;;;;0.80;0.80;;;8.90;99.90;;;;;;5113897;28;20088;-69
2023/05/29 04:28:10;;;;;;;3.97;1.13;;;9.00;99.90;;;;;;5113605;28;20036;-69
2023/05/29 04:30:36;;;;;;;6.63;1.45;;;9.50;99.90;;;;;;5113774;28;20092;-69
2023/05/29 04:33:02;;;;;;;1.10;0.90;;;9.10;99.90;;;;;;5113940;28;20039;-69
2023/05/29 04:35:28;;;;;;;8.40;1.30;;;9.00;99.90;;;;;;5113704;28;20421;-69
2023/05/29 04:37:56;;;;;;;8.35;1.20;;;9.20;99.90;;;;;;5113684;28;20036;-70
2023/05/29 04:40:22;;;;;;;2.45;0.98;;;9.20;99.90;;;;;;5113678;28;20035;-69
2023/05/29 04:42:47;;;;;;;1.50;1.10;;;9.30;99.90;;;;;;5113635;28;20122;-70
2023/05/29 04:45:13;;;;;;;1.25;0.70;;;9.40;99.90;;;;;;5116123;28;20086;-68
2023/05/29 04:47:49;;;;;;;9.95;1.15;;;9.40;99.90;;;;;;5117526;28;20454;-70
2023/05/29 04:50:16;;;;;;;2.40;1.23;;;9.50;99.90;;;;;;5117705;28;20042;-70
2023/05/29 04:52:43;;;;;;;;;;;9.50;99.90;;;;;;5117845;28;20096;-69
2023/05/29 04:55:08;;;;;;;1.25;0.98;;;9.60;99.90;;;;;;5117414;28;20006;-69
2023/05/29 04:57:34;;;;;;;1.00;0.88;;;9.60;99.90;;;;;;5117256;28;20111;-69
2023/05/29 05:00:00;;;;;;;4.30;0.90;;;9.70;99.90;;;;;;5116531;28;20040;-69
2023/05/29 05:02:25;;;;;;;3.90;1.08;;;9.80;99.90;;;;;;5117257;28;20095;-69
2023/05/29 05:04:51;;;;;;;2.38;1.52;;;9.80;99.90;;;;;;5117247;28;20126;-70
2023/05/29 05:07:16;;;;;;;5.72;0.90;;;9.90;99.90;;;;;;5117144;28;20047;-70
2023/05/29 05:09:42;;;;;;;4.03;0.82;;;10.00;99.90;;;;;;5117162;28;20039;-68
2023/05/29 05:12:08;;;;;;;2.15;1.05;;;10.00;99.90;;;;;;5117008;28;20465;-69
2023/05/29 05:14:34;;;;;;;5.63;0.80;;;10.10;99.90;;;;;;5117027;28;20371;-69
2023/05/29 05:17:00;;;;;;;10.10;1.37;;;10.10;99.90;;;;;;5117036;28;20089;-69
2023/05/29 05:19:25;;;;;;;1.02;0.85;;;10.10;99.90;;;;;;5116858;28;20285;-70
2023/05/29 05:21:51;;;;;;;5.78;0.88;;;10.80;99.90;;;;;;5117094;28;20123;-70
2023/05/29 05:24:16;;;;;;;0.85;0.73;;;10.50;99.90;;;;;;5116849;28;20027;-69
2023/05/29 05:26:42;;;;;;;3.08;1.63;;;10.70;99.90;;;;;;5116657;28;20375;-70
2023/05/29 05:29:07;;;;;;;1.55;1.08;;;10.90;99.90;;;;;;5116743;28;20050;-70
2023/05/29 05:31:33;;;;;;;10.07;1.15;;;11.10;99.90;;;;;;5117055;28;20038;-70
2023/05/29 05:33:59;;;;;;;0.70;0.70;;;11.20;99.90;;;;;;5116620;28;20126;-69
2023/05/29 05:36:24;;;;;;;15.10;0.82;;;11.30;99.90;;;;;;5116792;28;20038;-70
2023/05/29 05:38:50;;;;;;;0.73;0.65;;;11.90;99.90;;;;;;5116355;28;20036;-69
2023/05/29 05:41:16;;;;;;;2.15;1.35;;;11.80;99.90;;;;;;5116555;28;20080;-70
2023/05/29 05:43:41;;;;;;;7.15;0.93;;;12.00;99.90;;;;;;5116151;28;20043;-69
2023/05/29 05:46:07;;;;;;;1.17;0.95;;;12.10;99.90;;;;;;5116360;28;20035;-70
2023/05/29 05:48:32;;;;;;;2.45;1.15;;;12.40;99.90;;;;;;5116377;28;20115;-70
2023/05/29 05:50:58;;;;;;;1.13;0.90;;;12.40;99.90;;;;;;5116355;28;20044;-69
2023/05/29 05:53:24;;;;;;;2.50;0.88;;;12.50;99.90;;;;;;5116212;28;20114;-69
2023/05/29 05:55:49;;;;;;;1.17;0.70;;;12.70;99.90;;;;;;5116017;28;20168;-70
2023/05/29 05:58:15;;;;;;;1.65;1.15;;;12.70;99.90;;;;;;5116256;28;20124;-70
2023/05/29 06:00:42;;;;;;;3.50;1.02;;;12.80;99.90;;;;;;5116185;28;20382;-70
2023/05/29 06:03:07;;;;;;;0.50;0.50;;;12.90;99.90;;;;;;5116085;28;20043;-69
2023/05/29 06:05:36;;;;;;;2.90;1.17;;;12.80;99.90;;;;;;5116062;28;20133;-69
2023/05/29 06:08:01;;;;;;;1.10;0.82;;;12.90;99.90;;;;;;5115589;28;20058;-70
2023/05/29 06:10:27;;;;;;;6.00;1.13;;;13.10;99.90;;;;;;5116045;28;20032;-70
2023/05/29 06:12:53;;;;;;;1.15;1.05;;;12.90;99.90;;;;;;5115898;28;20043;-69
2023/05/29 06:15:19;;;;;;;4.45;1.08;;;13.00;99.90;;;;;;5116369;28;20375;-69
2023/05/29 06:17:44;;;;;;;0.80;0.70;;;13.10;99.90;;;;;;5115853;28;20370;-70
2023/05/29 06:20:11;;;;;;;3.83;1.25;;;13.00;99.90;;;;;;5115763;28;20372;-69
2023/05/29 06:22:37;;;;;;;4.85;0.70;;;13.00;99.90;;;;;;5115840;28;20142;-70
2023/05/29 06:25:03;;;;;;;0.95;0.60;;;13.10;99.90;;;;;;5115734;28;20134;-69
2023/05/29 06:27:29;;;;;;;9.45;1.23;;;13.10;99.90;;;;;;5115216;28;20222;-69
2023/05/29 06:29:54;;;;;;;13.10;1.05;;;13.20;99.90;;;;;;5115603;28;20416;-70
2023/05/29 06:32:20;;;;;;;2.97;1.02;;;13.60;99.90;;;;;;5115535;28;20043;-69
2023/05/29 06:34:45;;;;;;;4.40;1.55;;;13.50;99.90;;;;;;5114556;28;20044;-69
2023/05/29 06:37:11;;;;;;;0.90;0.63;;;13.60;99.90;;;;;;5115379;28;20039;-70
2023/05/29 06:39:37;;;;;;;2.50;0.80;;;13.60;99.90;;;;;;5115353;28;20130;-69
2023/05/29 06:42:02;;;;;;;0.73;0.65;;;13.70;99.90;;;;;;5115242;28;20050;-70
2023/05/29 06:44:28;;;;;;;0.90;0.82;;;13.60;99.90;;;;;;5115526;28;20031;-71
2023/05/29 06:46:53;;;;;;;1.38;0.77;;;13.60;99.90;;;;;;5115113;28;20071;-69
2023/05/29 06:49:19;;;;;;;6.88;0.73;;;13.70;99.90;;;;;;5115457;28;20044;-71
2023/05/29 06:51:45;;;;;;;7.60;1.75;;;13.70;99.90;;;;;;5115151;28;20035;-71
2023/05/29 06:54:10;;;;;;;0.57;0.57;;;13.70;99.90;;;;;;5115080;28;20092;-69
2023/05/29 06:56:36;;;;;;;0.60;0.60;;;13.70;99.90;;;;;;5114945;28;20079;-69
2023/05/29 06:59:01;;;;;;;2.80;0.80;;;13.90;99.90;;;;;;5115067;28;20114;-70
2023/05/29 07:01:27;;;;;;;18.63;1.73;;;14.00;99.90;;;;;;5115240;28;20040;-69
2023/05/29 07:03:53;;;;;;;2.92;0.93;;;14.10;99.90;;;;;;5114881;28;20471;-69
2023/05/29 07:06:19;;;;;;;7.28;1.05;;;14.00;99.90;;;;;;5114288;28;20035;-69
2023/05/29 07:08:45;;;;;;;0.60;0.60;;;14.20;99.90;;;;;;5114516;28;20040;-69
2023/05/29 07:11:10;;;;;;;3.50;0.70;;;14.30;99.90;;;;;;5114719;28;20039;-68
2023/05/29 07:13:36;;;;;;;1.02;0.70;;;14.30;99.90;;;;;;5115162;28;20089;-70
2023/05/29 07:16:02;;;;;;;3.28;1.10;;;14.30;99.90;;;;;;5114708;28;20031;-69
2023/05/29 07:18:27;;;;;;;3.13;1.15;;;14.40;99.90;;;;;;5114664;28;20095;-69
2023/05/29 07:20:56;;;;;;;1.95;0.98;;;14.40;99.90;;;;;;5114519;28;20382;-68
2023/05/29 07:23:22;;;;;;;2.88;1.33;;;14.40;99.90;;;;;;5114540;28;20161;-70
2023/05/29 07:25:47;;;;;;;5.47;1.37;;;14.30;99.90;;;;;;5114447;28;20476;-70
2023/05/29 07:28:13;;;;;;;6.10;1.33;;;14.30;99.90;;;;;;5114380;28;20476;-69
2023/05/29 07:30:39;;;;;;;1.97;0.97;;;14.60;99.90;;;;;;5114408;28;20036;-69
2023/05/29 07:33:04;;;;;;;1.23;0.90;;;14.50;99.90;;;;;;5114417;28;20031;-69
2023/05/29 07:35:32;;;;;;;1.13;0.60;;;14.60;99.90;;;;;;5114347;28;20092;-70
2023/05/29 07:37:58;;;;;;;5.28;1.30;;;14.70;99.90;;;;;;5114279;28;20039;-69
2023/05/29 07:40:24;;;;;;;6.90;1.73;;;14.80;99.90;;;;;;5114237;27;20050;-69
2023/05/29 07:42:49;;;;;;;5.47;1.10;;;14.90;99.90;;;;;;5114323;28;20372;-71
2023/05/29 07:45:15;;;;;;;2.05;1.20;;;14.80;99.90;;;;;;5114834;28;20027;-70
2023/05/29 07:47:41;;;;;;;4.40;1.23;;;14.80;99.90;;;;;;5112909;28;20472;-69
2023/05/29 07:50:08;;;;;;;2.85;1.35;;;14.80;99.90;;;;;;5114134;28;20468;-69
2023/05/29 07:52:33;;;;;;;3.92;1.27;;;14.80;99.90;;;;;;5114282;28;20043;-70
2023/05/29 07:55:01;;;;;;;7.67;0.90;;;14.90;99.90;;;;;;5114112;28;20031;-70
2023/05/29 07:57:27;;;;;;;3.38;1.52;;;15.00;99.90;;;;;;5114064;28;20032;-69
2023/05/29 07:59:53;;;;;;;8.57;1.20;;;14.90;99.90;;;;;;5114629;28;20058;-70
2023/05/29 08:02:19;;;;;;;3.65;1.75;;;14.90;99.90;;;;;;5114084;28;20043;-71
2023/05/29 08:04:45;;;;;;;3.23;1.03;;;15.00;99.90;;;;;;5114471;28;20046;-69
2023/05/29 08:07:10;;;;;;;7.50;1.33;;;15.00;99.90;;;;;;5113656;28;20054;-70
2023/05/29 08:09:36;;;;;;;4.03;1.10;;;15.10;99.90;;;;;;5114046;28;20039;-70
2023/05/29 08:12:02;;;;;;;2.40;1.37;;;15.20;99.90;;;;;;5113641;28;20468;-70
2023/05/29 08:14:28;;;;;;;4.53;1.53;;;15.30;99.90;;;;;;5113932;28;20047;-70
2023/05/29 08:16:54;;;;;;;1.83;1.23;;;15.50;99.90;;;;;;5113968;28;20289;-71
2023/05/29 08:19:19;;;;;;;1.63;1.20;;;15.50;99.90;;;;;;5116802;28;20375;-70
2023/05/29 08:21:45;;;;;;;1.00;0.70;;;15.40;99.90;;;;;;5118102;28;20051;-70
2023/05/29 08:24:11;;;;;;;3.33;1.47;;;15.50;99.90;;;;;;5118033;28;20044;-70
2023/05/29 08:26:37;;;;;;;8.50;1.60;;;15.60;99.90;;;;;;5118146;28;20082;-70
2023/05/29 08:29:03;;;;;;;4.13;0.93;;;15.50;99.90;;;;;;5117943;28;20050;-70
2023/05/29 08:31:30;;;;;;;8.38;1.20;;;15.50;99.90;;;;;;5117880;28;20274;-69
2023/05/29 08:33:56;;;;;;;;;;;15.50;99.90;;;;;;5118257;28;20052;-70
2023/05/29 08:36:21;;;;;;;1.77;0.95;;;15.60;99.90;;;;;;5117951;28;19916;-70
2023/05/29 08:38:48;;;;;;;4.03;1.13;;;15.60;99.90;;;;;;5116722;28;20478;-71
2023/05/29 08:41:44;;;;;;;3.83;0.93;;;15.50;99.90;;;;;;5117687;28;20047;-70
2023/05/29 08:44:14;;;;;;;5.53;1.88;;;15.60;99.90;;;;;;5112399;28;20044;-70
2023/05/29 08:46:40;;;;;;;3.03;1.30;;;15.80;99.90;;;;;;5117675;28;20039;-70
2023/05/29 08:49:08;;;;;;;1.23;0.90;;;15.70;99.90;;;;;;5117602;28;20043;-70
2023/05/29 08:51:42;;;;;;;5.43;0.88;;;16.00;99.90;;;;;;5117412;28;20043;-70
2023/05/29 08:54:08;;;;;;;10.57;1.65;;;16.00;99.90;;;;;;5117777;28;20058;-68
2023/05/29 08:56:35;;;;;;;6.32;1.55;;;16.30;99.90;;;;;;5117356;28;20471;-70
2023/05/29 08:59:02;;;;;;;5.07;1.73;;;16.10;99.90;;;;;;5117344;27;20048;-70
2023/05/29 09:01:28;;;;;;;3.95;1.25;;;16.30;99.90;;;;;;5117522;28;20047;-68
2023/05/29 09:03:54;;;;;;;1.77;1.38;;;16.20;99.90;;;;;;5117218;28;20040;-69
2023/05/29 09:06:23;;;;;;;7.85;1.33;;;16.30;99.90;;;;;;5116911;28;20039;-69
2023/05/29 09:08:48;;;;;;;4.13;1.33;;;16.20;99.90;;;;;;5117164;27;20039;-69
2023/05/29 09:11:14;;;;;;;1.17;0.93;;;16.30;99.90;;;;;;5117128;28;20538;-69
2023/05/29 09:13:40;;;;;;;3.07;1.83;;;16.50;99.90;;;;;;5117088;28;20074;-68
2023/05/29 09:16:07;;;;;;;2.37;0.80;;;16.60;99.90;;;;;;5116996;28;20031;-70
2023/05/29 09:18:32;;;;;;;2.05;1.40;;;16.90;99.90;;;;;;5116764;28;20047;-69
2023/05/29 09:20:58;;;;;;;1.43;0.67;;;17.10;99.90;;;;;;5150295;27;20375;-69
2023/05/29 09:23:25;;;;;;;6.50;2.53;;;17.10;99.90;;;;;;5116924;28;20043;-69
2023/05/29 09:25:53;;;;;;;7.45;1.75;;;17.30;99.90;;;;;;5116831;28;20273;-69
2023/05/29 09:28:21;;;;;;;4.05;1.38;;;17.00;99.90;;;;;;5116684;28;20120;-69
2023/05/29 09:30:47;;;;;;;5.78;1.05;;;17.10;99.90;;;;;;5116017;28;20047;-69
2023/05/29 09:33:14;;;;;;;1.58;1.00;;;17.10;99.90;;;;;;5116680;28;20039;-70
2023/05/29 09:35:50;;;;;;;16.90;2.15;;;16.90;99.90;;;;;;5116507;27;20039;-69
2023/05/29 09:38:17;;;;;;;3.42;0.95;;;17.00;99.90;;;;;;5116565;28;20040;-69
2023/05/29 09:40:46;;;;;;;4.15;1.40;;;17.00;99.90;;;;;;5116804;28;20039;-69
2023/05/29 09:43:17;;;;;;;6.90;1.42;;;17.00;99.90;;;;;;5116511;28;20046;-68
2023/05/29 09:45:48;;;;;;;2.25;0.82;;;16.90;99.90;;;;;;5116538;27;20043;-70
2023/05/29 09:48:18;;;;;;;1.65;0.82;;;17.20;99.90;;;;;;5116392;28;20046;-69
2023/05/29 09:50:47;;;;;;;5.88;1.70;;;16.90;99.90;;;;;;5116785;28;20039;-70
2023/05/29 09:53:24;;;;;;;5.80;1.25;;;17.00;99.90;;;;;;5116310;28;20083;-70
2023/05/29 09:55:54;;;;;;;9.98;2.03;;;17.00;99.90;;;;;;5116225;28;20038;-70
2023/05/29 09:58:20;;;;;;;1.92;1.25;;;17.30;99.90;;;;;;5116251;28;20036;-71
2023/05/29 10:00:48;;;;;;;6.28;0.93;;;17.40;99.90;;;;;;5114669;28;20479;-70
2023/05/29 10:03:14;;;;;;;13.27;1.52;;;17.40;99.90;;;;;;5114800;28;20079;-71
2023/05/29 10:05:41;;;;;;;1.17;0.77;;;17.40;99.90;;;;;;5116426;28;20036;-71
2023/05/29 10:08:18;;;;;;;6.35;1.23;;;17.50;99.90;;;;;;5115667;27;20048;-70
2023/05/29 10:10:47;;;;;;;5.70;1.80;;;17.60;99.90;;;;;;5116062;28;20110;-71
2023/05/29 10:13:14;;;;;;;3.00;1.38;;;17.70;99.90;;;;;;5115872;28;20044;-70
2023/05/29 10:15:50;;;;;;;3.78;0.98;;;17.80;99.90;;;;;;5115865;28;20040;-70
2023/05/29 10:18:36;;;;;;;4.30;0.75;;;17.60;99.90;;;;;;5116156;28;20042;-70
2023/05/29 10:21:02;;;;;;;2.75;1.38;;;17.60;99.90;;;;;;5115816;28;20050;-70
2023/05/29 10:23:29;;;;;;;5.43;1.03;;;17.60;99.90;;;;;;5115652;28;20433;-70
2023/05/29 10:26:04;;;;;;;2.65;1.30;;;17.60;99.90;;;;;;5115370;28;20503;-70
2023/05/29 10:28:31;;;;;;;4.80;1.33;;;17.70;99.90;;;;;;5115646;28;20054;-71
2023/05/29 10:31:09;;;;;;;12.43;1.15;;;17.80;99.90;;;;;;5115824;28;20039;-70
2023/05/29 10:34:10;;;;;;;0.80;0.40;;;17.80;99.90;;;;;;5115565;28;20498;-70
2023/05/29 10:36:44;;;;;;;0.55;0.40;;;17.90;99.90;;;;;;5076657;28;20062;-71
2023/05/29 10:39:10;;;;;;;0.57;0.50;;;17.70;99.90;;;;;;5115987;28;20039;-71
2023/05/29 10:41:39;;;;;;;8.73;1.33;;;17.90;99.90;;;;;;5114199;28;20057;-70
2023/05/29 10:44:31;;;;;;;3.35;0.65;;;17.90;99.90;;;;;;5115075;28;20047;-70
2023/05/29 10:46:59;;;;;;;2.40;0.95;;;17.90;99.90;;;;;;5115105;28;20344;-71
2023/05/29 10:49:25;;;;;;;0.40;0.40;;;18.00;99.90;;;;;;5114999;28;20475;-70
2023/05/29 10:51:52;;;;;;;0.50;0.47;;;18.00;99.90;;;;;;5115184;28;20031;-70
2023/05/29 10:54:23;;;;;;;1.25;1.15;;;18.00;99.90;;;;;;5115145;28;20536;-70
2023/05/29 10:56:55;;;;;;;0.30;0.30;;;18.00;99.90;;;;;;5115058;28;20472;-70
2023/05/29 10:59:20;;;;;;;0.73;0.73;;;18.00;99.90;;;;;;5114716;28;20028;-71
2023/05/29 11:01:46;;;;;;;0.30;0.30;;;18.20;99.30;;;;;;5115045;28;20379;-71
2023/05/29 11:04:21;;;;;;;0.30;0.30;;;18.20;99.90;;;;;;5132220;27;20893;-69
2023/05/29 11:06:47;;;;;;;0.30;0.30;;;18.30;99.90;;;;;;5131963;28;20390;-71
2023/05/29 11:09:36;;;;;;;0.50;0.50;;;18.30;99.90;;;;;;5131885;27;20139;-70
2023/05/29 11:12:35;;;;;;;0.50;0.50;;;18.40;99.90;;;;;;5132044;27;20471;-70
2023/05/29 11:15:10;;;;;;;0.40;0.40;;;18.40;99.90;;;;;;5132161;27;20054;-70
2023/05/29 11:17:39;;;;;;;0.30;0.30;;;18.40;99.90;;;;;;5131788;27;20087;-69
2023/05/29 11:20:17;;;;;;;0.30;0.30;;;18.40;99.90;;;;;;5131394;28;20543;-70
2023/05/29 11:22:48;;;;;;;0.30;0.30;;;18.50;99.90;;;;;;5131993;27;20060;-69
2023/05/29 11:25:15;;;;;;;0.30;0.30;;;18.60;99.90;;;;;;5131554;28;20031;-69
2023/05/29 11:27:42;;;;;;;0.30;0.30;;;18.80;99.90;;;;;;5131808;27;20039;-70
2023/05/29 11:30:08;;;;;;;0.30;0.30;;;18.80;99.90;;;;;;5131486;27;20043;-69
2023/05/29 11:32:36;;;;;;;0.30;0.30;;;18.70;99.90;;;;;;5131370;28;20039;-71
2023/05/29 11:35:09;;;;;;;0.30;0.30;;;18.80;99.90;;;;;;5131409;27;20040;-69
2023/05/29 11:37:39;;;;;;;0.30;0.30;;;18.90;99.90;;;;;;5131461;27;20088;-69
2023/05/29 11:40:09;;;;;;;0.38;0.38;;;18.80;98.10;;;;;;5131371;27;20032;-69
2023/05/29 11:42:35;;;;;;;0.30;0.30;;;18.60;98.30;;;;;;5130203;28;20143;-70
2023/05/29 11:45:15;;;;;;;0.30;0.30;;;18.60;98.70;;;;;;5131205;27;20535;-70
2023/05/29 11:48:01;;;;;;;0.30;0.30;;;18.60;99.50;;;;;;5131171;27;20043;-70
2023/05/29 11:50:29;;;;;;;0.40;0.40;;;18.60;99.90;;;;;;5131213;27;20062;-70
2023/05/29 11:52:57;;;;;;;0.30;0.30;;;18.60;99.60;;;;;;5131287;27;20104;-70
2023/05/29 11:55:23;;;;;;;0.50;0.50;;;18.70;99.50;;;;;;5131063;27;20040;-70
2023/05/29 11:57:49;;;;;;;;;;;18.70;98.70;;;;;;5131412;27;20124;-69
2023/05/29 12:00:16;;;;;;;0.30;0.30;;;18.60;99.00;;;;;;5130889;27;19916;-70
2023/05/29 12:02:43;;;;;;;0.30;0.30;;;18.60;98.90;;;;;;5130664;27;20459;-69
2023/05/29 12:05:10;;;;;;;0.40;0.40;;;18.50;98.30;;;;;;5130787;27;20360;-70
2023/05/29 12:07:38;;;;;;;0.40;0.40;;;18.40;99.50;;;;;;5130797;27;20035;-70
2023/05/29 12:10:10;;;;;;;1.05;0.65;;;18.50;99.90;;;;;;5130764;28;20039;-69
2023/05/29 12:12:35;;;;;;;0.43;0.43;;;18.40;99.90;;;;;;5129603;28;20118;-71
2023/05/29 12:15:05;;;;;;;0.50;0.50;;;18.40;99.90;;;;;;5120700;28;20126;-70
2023/05/29 12:17:31;;;;;;;0.40;0.40;;;18.70;99.90;;;;;;5116203;28;20156;-70
2023/05/29 12:19:57;;;;;;;0.40;0.40;;;18.70;99.40;;;;;;5116661;28;20412;-69
2023/05/29 12:22:40;;;;;;;0.40;0.40;;;18.80;98.80;;;;;;5116789;28;20050;-71
2023/05/29 12:25:11;;;;;;;0.38;0.38;;;18.80;98.70;;;;;;5116864;28;20039;-70
2023/05/29 12:27:43;;;;;;;0.65;0.60;;;18.70;98.60;;;;;;5116765;28;20422;-71
2023/05/29 12:30:10;;;;;;;0.30;0.30;;;18.60;99.00;;;;;;5117015;28;20050;-69
2023/05/29 12:32:41;;;;;;;0.30;0.30;;;18.60;99.90;;;;;;5116602;28;20131;-70
2023/05/29 12:35:12;;;;;;;0.40;0.40;;;18.50;99.70;;;;;;5116707;27;20031;-69
2023/05/29 12:38:08;;;;;;;0.77;0.77;;;18.50;99.60;;;;;;5116582;28;20074;-70
2023/05/29 12:40:34;;;;;;;0.30;0.30;;;18.50;99.90;;;;;;5116377;28;20059;-71
2023/05/29 12:43:10;;;;;;;0.40;0.40;;;18.50;99.90;;;;;;5116711;28;20098;-69
2023/05/29 12:45:36;;;;;;;0.30;0.30;;;18.50;99.80;;;;;;5116640;27;20032;-70
2023/05/29 12:48:03;;;;;;;0.30;0.30;;;18.40;99.90;;;;;;5116114;28;20422;-71
2023/05/29 12:50:30;;;;;;;;;;;18.20;99.90;;;;;;5116739;28;20514;-69
2023/05/29 12:53:00;;;;;;;0.68;0.68;;;18.40;99.90;;;;;;5116342;28;19916;-70